sensor_id;sensor_type;location;lat;lon;timestamp;P1;durP1;ratioP1;P2;durP2;ratioP2
15443;SDS011;7822;48.146;11.576;2023-02-15T00:01:36;5.10;;;4.63;;
15443;SDS011;7822;48.146;11.576;2023-02-15T00:04:05;5.03;;;4.63;;
15443;SDS011;7822;48.146;11.576;2023-02-15T00:06:35;5.30;;;4.53;;
15443;SDS011;7822;48.146;11.576;2023-02-15T00:09:03;4.97;;;4.57;;
15443;SDS011;7822;48.146;11.576;2023-02-15T00:11:31;5.20;;;4.80;;
15443;SDS011;7822;48.146;11.576;2023-02-15T00:14:09;5.07;;;4.53;;
15443;SDS011;7822;48.146;11.576;2023-02-15T00:16:38;4.03;;;3.73;;
15443;SDS011;7822;48.146;11.576;2023-02-15T00:19:07;5.00;;;4.60;;
15443;SDS011;7822;48.146;11.576;2023-02-15T00:21:37;4.80;;;4.40;;
15443;SDS011;7822;48.146;11.576;2023-02-15T00:24:07;4.83;;;4.43;;
15443;SDS011;7822;48.146;11.576;2023-02-15T00:26:35;4.20;;;3.80;;
15443;SDS011;7822;48.146;11.576;2023-02-15T00:29:05;5.00;;;4.50;;
15443;SDS011;7822;48.146;11.576;2023-02-15T00:31:34;3.77;;;3.47;;
15443;SDS011;7822;48.146;11.576;2023-02-15T00:34:02;4.23;;;3.83;;
15443;SDS011;7822;48.146;11.576;2023-02-15T00:36:30;4.33;;;3.93;;
15443;SDS011;7822;48.146;11.576;2023-02-15T00:38:59;4.23;;;3.83;;
15443;SDS011;7822;48.146;11.576;2023-02-15T00:41:26;3.77;;;3.40;;
15443;SDS011;7822;48.146;11.576;2023-02-15T00:43:54;3.77;;;3.30;;
15443;SDS011;7822;48.146;11.576;2023-02-15T00:46:21;3.70;;;3.40;;
15443;SDS011;7822;48.146;11.576;2023-02-15T00:48:49;3.80;;;3.50;;
15443;SDS011;7822;48.146;11.576;2023-02-15T00:51:17;3.93;;;3.60;;
15443;SDS011;7822;48.146;11.576;2023-02-15T00:53:46;3.60;;;3.30;;
15443;SDS011;7822;48.146;11.576;2023-02-15T00:56:16;3.50;;;3.20;;
15443;SDS011;7822;48.146;11.576;2023-02-15T00:58:43;3.70;;;3.40;;
15443;SDS011;7822;48.146;11.576;2023-02-15T01:01:12;4.27;;;3.87;;
15443;SDS011;7822;48.146;11.576;2023-02-15T01:03:41;3.80;;;3.50;;
15443;SDS011;7822;48.146;11.576;2023-02-15T01:06:09;3.70;;;3.40;;
15443;SDS011;7822;48.146;11.576;2023-02-15T01:08:38;3.47;;;3.20;;
15443;SDS011;7822;48.146;11.576;2023-02-15T01:11:07;3.60;;;3.30;;
15443;SDS011;7822;48.146;11.576;2023-02-15T01:13:37;3.43;;;3.13;;
15443;SDS011;7822;48.146;11.576;2023-02-15T01:16:05;3.30;;;3.07;;
15443;SDS011;7822;48.146;11.576;2023-02-15T01:18:33;3.73;;;3.43;;
15443;SDS011;7822;48.146;11.576;2023-02-15T01:21:08;3.30;;;3.10;;
15443;SDS011;7822;48.146;11.576;2023-02-15T01:23:36;3.80;;;3.50;;
15443;SDS011;7822;48.146;11.576;2023-02-15T01:26:04;3.17;;;2.97;;
15443;SDS011;7822;48.146;11.576;2023-02-15T01:28:32;3.70;;;3.40;;
15443;SDS011;7822;48.146;11.576;2023-02-15T01:31:05;3.40;;;3.20;;
15443;SDS011;7822;48.146;11.576;2023-02-15T01:33:34;3.47;;;3.17;;
15443;SDS011;7822;48.146;11.576;2023-02-15T01:36:02;3.27;;;3.00;;
15443;SDS011;7822;48.146;11.576;2023-02-15T01:38:30;3.27;;;3.00;;
15443;SDS011;7822;48.146;11.576;2023-02-15T01:40:58;3.20;;;3.00;;
15443;SDS011;7822;48.146;11.576;2023-02-15T01:43:41;3.83;;;3.53;;
15443;SDS011;7822;48.146;11.576;2023-02-15T01:46:10;3.27;;;3.00;;
15443;SDS011;7822;48.146;11.576;2023-02-15T01:48:42;3.37;;;3.10;;
15443;SDS011;7822;48.146;11.576;2023-02-15T01:51:12;3.63;;;3.33;;
15443;SDS011;7822;48.146;11.576;2023-02-15T01:53:42;3.23;;;3.03;;
15443;SDS011;7822;48.146;11.576;2023-02-15T01:56:15;3.00;;;2.73;;
15443;SDS011;7822;48.146;11.576;2023-02-15T01:58:47;3.37;;;3.13;;
15443;SDS011;7822;48.146;11.576;2023-02-15T02:01:17;2.97;;;2.77;;
15443;SDS011;7822;48.146;11.576;2023-02-15T02:03:49;3.33;;;3.07;;
15443;SDS011;7822;48.146;11.576;2023-02-15T02:06:24;3.07;;;2.87;;
15443;SDS011;7822;48.146;11.576;2023-02-15T02:08:52;3.30;;;3.00;;
15443;SDS011;7822;48.146;11.576;2023-02-15T02:11:21;3.10;;;2.80;;
15443;SDS011;7822;48.146;11.576;2023-02-15T02:13:49;3.40;;;3.20;;
15443;SDS011;7822;48.146;11.576;2023-02-15T02:16:21;2.80;;;2.60;;
15443;SDS011;7822;48.146;11.576;2023-02-15T02:18:58;2.80;;;2.60;;
15443;SDS011;7822;48.146;11.576;2023-02-15T02:21:42;3.20;;;2.90;;
15443;SDS011;7822;48.146;11.576;2023-02-15T02:24:37;3.23;;;3.00;;
15443;SDS011;7822;48.146;11.576;2023-02-15T02:27:26;2.70;;;2.50;;
15443;SDS011;7822;48.146;11.576;2023-02-15T02:30:09;3.00;;;2.80;;
15443;SDS011;7822;48.146;11.576;2023-02-15T02:35:57;2.80;;;2.60;;
15443;SDS011;7822;48.146;11.576;2023-02-15T02:38:33;3.53;;;2.67;;
15443;SDS011;7822;48.146;11.576;2023-02-15T02:41:12;2.70;;;2.50;;
15443;SDS011;7822;48.146;11.576;2023-02-15T02:43:54;2.63;;;2.43;;
15443;SDS011;7822;48.146;11.576;2023-02-15T02:46:30;3.10;;;2.90;;
15443;SDS011;7822;48.146;11.576;2023-02-15T02:49:04;3.10;;;2.90;;
15443;SDS011;7822;48.146;11.576;2023-02-15T02:51:32;3.00;;;2.80;;
15443;SDS011;7822;48.146;11.576;2023-02-15T02:54:00;2.90;;;2.70;;
15443;SDS011;7822;48.146;11.576;2023-02-15T02:56:33;3.07;;;2.80;;
15443;SDS011;7822;48.146;11.576;2023-02-15T02:59:05;3.03;;;2.77;;
15443;SDS011;7822;48.146;11.576;2023-02-15T03:01:39;2.87;;;2.67;;
15443;SDS011;7822;48.146;11.576;2023-02-15T03:04:12;2.90;;;2.70;;
15443;SDS011;7822;48.146;11.576;2023-02-15T03:06:44;2.70;;;2.50;;
15443;SDS011;7822;48.146;11.576;2023-02-15T03:09:16;2.93;;;2.73;;
15443;SDS011;7822;48.146;11.576;2023-02-15T03:11:48;2.80;;;2.60;;
15443;SDS011;7822;48.146;11.576;2023-02-15T03:14:17;2.70;;;2.50;;
15443;SDS011;7822;48.146;11.576;2023-02-15T03:16:46;3.47;;;3.17;;
15443;SDS011;7822;48.146;11.576;2023-02-15T03:19:19;2.73;;;2.53;;
15443;SDS011;7822;48.146;11.576;2023-02-15T03:21:51;2.43;;;2.23;;
15443;SDS011;7822;48.146;11.576;2023-02-15T03:24:31;2.40;;;2.30;;
15443;SDS011;7822;48.146;11.576;2023-02-15T03:27:02;2.73;;;2.53;;
15443;SDS011;7822;48.146;11.576;2023-02-15T03:29:34;3.20;;;2.90;;
15443;SDS011;7822;48.146;11.576;2023-02-15T03:32:04;2.70;;;2.50;;
15443;SDS011;7822;48.146;11.576;2023-02-15T03:34:37;2.80;;;2.60;;
15443;SDS011;7822;48.146;11.576;2023-02-15T03:37:05;2.93;;;2.73;;
15443;SDS011;7822;48.146;11.576;2023-02-15T03:39:39;3.07;;;2.70;;
15443;SDS011;7822;48.146;11.576;2023-02-15T03:42:13;2.63;;;2.43;;
15443;SDS011;7822;48.146;11.576;2023-02-15T03:44:47;2.40;;;2.30;;
15443;SDS011;7822;48.146;11.576;2023-02-15T03:47:22;2.50;;;2.30;;
15443;SDS011;7822;48.146;11.576;2023-02-15T03:49:57;3.10;;;2.90;;
15443;SDS011;7822;48.146;11.576;2023-02-15T03:52:28;2.80;;;2.53;;
15443;SDS011;7822;48.146;11.576;2023-02-15T03:54:57;2.50;;;2.30;;
15443;SDS011;7822;48.146;11.576;2023-02-15T03:57:27;2.43;;;2.33;;
15443;SDS011;7822;48.146;11.576;2023-02-15T04:00:15;2.47;;;2.27;;
15443;SDS011;7822;48.146;11.576;2023-02-15T04:03:14;2.53;;;2.33;;
15443;SDS011;7822;48.146;11.576;2023-02-15T04:05:52;2.60;;;2.40;;
15443;SDS011;7822;48.146;11.576;2023-02-15T04:08:20;2.80;;;2.60;;
15443;SDS011;7822;48.146;11.576;2023-02-15T04:11:07;2.53;;;2.33;;
15443;SDS011;7822;48.146;11.576;2023-02-15T04:13:34;2.47;;;2.30;;
15443;SDS011;7822;48.146;11.576;2023-02-15T04:16:02;2.70;;;2.50;;
15443;SDS011;7822;48.146;11.576;2023-02-15T04:18:30;2.37;;;2.27;;
15443;SDS011;7822;48.146;11.576;2023-02-15T04:21:17;2.20;;;2.10;;
15443;SDS011;7822;48.146;11.576;2023-02-15T04:24:04;2.43;;;2.23;;
15443;SDS011;7822;48.146;11.576;2023-02-15T04:26:49;2.63;;;2.43;;
15443;SDS011;7822;48.146;11.576;2023-02-15T04:29:19;2.47;;;2.27;;
15443;SDS011;7822;48.146;11.576;2023-02-15T04:31:47;2.30;;;2.20;;
15443;SDS011;7822;48.146;11.576;2023-02-15T04:34:15;2.40;;;2.20;;
15443;SDS011;7822;48.146;11.576;2023-02-15T04:36:44;2.77;;;2.57;;
15443;SDS011;7822;48.146;11.576;2023-02-15T04:39:12;2.70;;;2.50;;
15443;SDS011;7822;48.146;11.576;2023-02-15T04:41:40;2.23;;;2.03;;
15443;SDS011;7822;48.146;11.576;2023-02-15T04:44:08;2.30;;;2.20;;
15443;SDS011;7822;48.146;11.576;2023-02-15T04:46:36;2.67;;;2.47;;
15443;SDS011;7822;48.146;11.576;2023-02-15T04:49:04;2.50;;;2.30;;
15443;SDS011;7822;48.146;11.576;2023-02-15T04:51:32;2.27;;;2.10;;
15443;SDS011;7822;48.146;11.576;2023-02-15T04:54:01;2.13;;;2.03;;
15443;SDS011;7822;48.146;11.576;2023-02-15T04:56:29;2.50;;;2.30;;
15443;SDS011;7822;48.146;11.576;2023-02-15T04:58:57;2.90;;;2.70;;
15443;SDS011;7822;48.146;11.576;2023-02-15T05:01:25;2.47;;;2.27;;
15443;SDS011;7822;48.146;11.576;2023-02-15T05:03:52;2.50;;;2.30;;
15443;SDS011;7822;48.146;11.576;2023-02-15T05:06:20;1.90;;;1.80;;
15443;SDS011;7822;48.146;11.576;2023-02-15T05:08:48;2.70;;;2.50;;
15443;SDS011;7822;48.146;11.576;2023-02-15T05:11:17;2.20;;;2.10;;
15443;SDS011;7822;48.146;11.576;2023-02-15T05:13:44;2.57;;;2.37;;
15443;SDS011;7822;48.146;11.576;2023-02-15T05:16:12;2.20;;;2.10;;
15443;SDS011;7822;48.146;11.576;2023-02-15T05:18:40;2.23;;;2.13;;
15443;SDS011;7822;48.146;11.576;2023-02-15T05:21:07;2.47;;;2.30;;
15443;SDS011;7822;48.146;11.576;2023-02-15T05:23:35;2.30;;;2.10;;
15443;SDS011;7822;48.146;11.576;2023-02-15T05:26:03;2.50;;;2.33;;
15443;SDS011;7822;48.146;11.576;2023-02-15T05:28:49;2.47;;;2.27;;
15443;SDS011;7822;48.146;11.576;2023-02-15T05:31:17;2.20;;;2.10;;
15443;SDS011;7822;48.146;11.576;2023-02-15T05:33:46;2.57;;;2.37;;
15443;SDS011;7822;48.146;11.576;2023-02-15T05:36:14;2.27;;;2.17;;
15443;SDS011;7822;48.146;11.576;2023-02-15T05:38:41;2.20;;;2.10;;
15443;SDS011;7822;48.146;11.576;2023-02-15T05:41:10;2.33;;;2.17;;
15443;SDS011;7822;48.146;11.576;2023-02-15T05:43:38;2.47;;;2.27;;
15443;SDS011;7822;48.146;11.576;2023-02-15T05:46:08;2.20;;;2.10;;
15443;SDS011;7822;48.146;11.576;2023-02-15T05:48:36;2.17;;;2.07;;
15443;SDS011;7822;48.146;11.576;2023-02-15T05:51:04;2.50;;;2.30;;
15443;SDS011;7822;48.146;11.576;2023-02-15T05:53:34;2.13;;;2.03;;
15443;SDS011;7822;48.146;11.576;2023-02-15T05:56:03;2.20;;;2.10;;
15443;SDS011;7822;48.146;11.576;2023-02-15T05:58:33;2.10;;;2.00;;
15443;SDS011;7822;48.146;11.576;2023-02-15T06:01:08;2.40;;;2.20;;
15443;SDS011;7822;48.146;11.576;2023-02-15T06:03:36;1.97;;;1.87;;
15443;SDS011;7822;48.146;11.576;2023-02-15T06:06:04;2.37;;;2.27;;
15443;SDS011;7822;48.146;11.576;2023-02-15T06:08:32;2.07;;;1.97;;
15443;SDS011;7822;48.146;11.576;2023-02-15T06:11:01;2.50;;;2.30;;
15443;SDS011;7822;48.146;11.576;2023-02-15T06:13:28;2.50;;;2.30;;
15443;SDS011;7822;48.146;11.576;2023-02-15T06:15:56;2.07;;;1.97;;
15443;SDS011;7822;48.146;11.576;2023-02-15T06:18:26;2.00;;;1.90;;
15443;SDS011;7822;48.146;11.576;2023-02-15T06:20:53;2.10;;;2.00;;
15443;SDS011;7822;48.146;11.576;2023-02-15T06:23:21;2.50;;;2.03;;
15443;SDS011;7822;48.146;11.576;2023-02-15T06:25:49;2.00;;;1.90;;
15443;SDS011;7822;48.146;11.576;2023-02-15T06:28:16;2.10;;;2.00;;
15443;SDS011;7822;48.146;11.576;2023-02-15T06:30:44;2.50;;;2.30;;
15443;SDS011;7822;48.146;11.576;2023-02-15T06:33:11;2.23;;;2.03;;
15443;SDS011;7822;48.146;11.576;2023-02-15T06:35:40;2.00;;;1.90;;
15443;SDS011;7822;48.146;11.576;2023-02-15T06:38:08;2.80;;;2.00;;
15443;SDS011;7822;48.146;11.576;2023-02-15T06:40:36;2.03;;;1.93;;
15443;SDS011;7822;48.146;11.576;2023-02-15T06:43:03;2.10;;;2.00;;
15443;SDS011;7822;48.146;11.576;2023-02-15T06:45:31;2.20;;;2.07;;
15443;SDS011;7822;48.146;11.576;2023-02-15T06:47:59;2.07;;;1.97;;
15443;SDS011;7822;48.146;11.576;2023-02-15T06:50:26;2.07;;;1.90;;
15443;SDS011;7822;48.146;11.576;2023-02-15T06:52:58;2.60;;;2.40;;
15443;SDS011;7822;48.146;11.576;2023-02-15T06:55:26;2.10;;;2.00;;
15443;SDS011;7822;48.146;11.576;2023-02-15T06:57:53;2.40;;;2.20;;
15443;SDS011;7822;48.146;11.576;2023-02-15T07:00:21;2.03;;;1.90;;
15443;SDS011;7822;48.146;11.576;2023-02-15T07:02:52;2.10;;;2.00;;
15443;SDS011;7822;48.146;11.576;2023-02-15T07:05:22;2.27;;;2.07;;
15443;SDS011;7822;48.146;11.576;2023-02-15T07:07:50;2.27;;;2.07;;
15443;SDS011;7822;48.146;11.576;2023-02-15T07:10:19;2.20;;;2.10;;
15443;SDS011;7822;48.146;11.576;2023-02-15T07:12:46;2.53;;;2.33;;
15443;SDS011;7822;48.146;11.576;2023-02-15T07:15:14;2.20;;;2.10;;
15443;SDS011;7822;48.146;11.576;2023-02-15T07:17:43;2.10;;;2.00;;
15443;SDS011;7822;48.146;11.576;2023-02-15T07:20:12;2.00;;;1.90;;
15443;SDS011;7822;48.146;11.576;2023-02-15T07:22:41;2.33;;;2.20;;
15443;SDS011;7822;48.146;11.576;2023-02-15T07:25:09;2.07;;;1.97;;
15443;SDS011;7822;48.146;11.576;2023-02-15T07:27:39;2.20;;;2.10;;
15443;SDS011;7822;48.146;11.576;2023-02-15T07:30:08;2.03;;;1.90;;
15443;SDS011;7822;48.146;11.576;2023-02-15T07:32:39;2.67;;;2.47;;
15443;SDS011;7822;48.146;11.576;2023-02-15T07:35:30;2.30;;;2.10;;
15443;SDS011;7822;48.146;11.576;2023-02-15T07:37:58;2.40;;;2.20;;
15443;SDS011;7822;48.146;11.576;2023-02-15T07:40:26;2.00;;;1.90;;
15443;SDS011;7822;48.146;11.576;2023-02-15T07:42:57;2.13;;;2.03;;
15443;SDS011;7822;48.146;11.576;2023-02-15T07:45:25;2.00;;;1.90;;
15443;SDS011;7822;48.146;11.576;2023-02-15T07:47:53;1.73;;;1.63;;
15443;SDS011;7822;48.146;11.576;2023-02-15T07:50:21;1.90;;;1.80;;
15443;SDS011;7822;48.146;11.576;2023-02-15T07:52:48;1.97;;;1.87;;
15443;SDS011;7822;48.146;11.576;2023-02-15T07:55:16;2.30;;;2.20;;
15443;SDS011;7822;48.146;11.576;2023-02-15T07:57:45;2.07;;;1.97;;
15443;SDS011;7822;48.146;11.576;2023-02-15T08:00:15;1.80;;;1.70;;
15443;SDS011;7822;48.146;11.576;2023-02-15T08:02:47;1.83;;;1.73;;
15443;SDS011;7822;48.146;11.576;2023-02-15T08:05:36;2.20;;;2.10;;
15443;SDS011;7822;48.146;11.576;2023-02-15T08:08:03;1.90;;;1.80;;
15443;SDS011;7822;48.146;11.576;2023-02-15T08:10:31;3.27;;;1.90;;
15443;SDS011;7822;48.146;11.576;2023-02-15T08:13:17;1.97;;;1.87;;
15443;SDS011;7822;48.146;11.576;2023-02-15T08:15:48;2.10;;;2.00;;
15443;SDS011;7822;48.146;11.576;2023-02-15T08:18:16;2.40;;;2.10;;
15443;SDS011;7822;48.146;11.576;2023-02-15T08:20:48;2.20;;;2.00;;
15443;SDS011;7822;48.146;11.576;2023-02-15T08:23:16;2.10;;;2.00;;
15443;SDS011;7822;48.146;11.576;2023-02-15T08:25:44;2.20;;;2.10;;
15443;SDS011;7822;48.146;11.576;2023-02-15T08:28:11;2.10;;;2.00;;
15443;SDS011;7822;48.146;11.576;2023-02-15T08:30:39;1.83;;;1.73;;
15443;SDS011;7822;48.146;11.576;2023-02-15T08:33:08;1.93;;;1.83;;
15443;SDS011;7822;48.146;11.576;2023-02-15T08:35:36;2.03;;;1.90;;
15443;SDS011;7822;48.146;11.576;2023-02-15T08:38:04;1.97;;;1.87;;
15443;SDS011;7822;48.146;11.576;2023-02-15T08:40:31;2.20;;;2.10;;
15443;SDS011;7822;48.146;11.576;2023-02-15T08:43:00;2.37;;;2.17;;
15443;SDS011;7822;48.146;11.576;2023-02-15T08:45:28;1.97;;;1.87;;
15443;SDS011;7822;48.146;11.576;2023-02-15T08:47:56;2.00;;;1.90;;
15443;SDS011;7822;48.146;11.576;2023-02-15T08:50:25;1.93;;;1.83;;
15443;SDS011;7822;48.146;11.576;2023-02-15T08:52:52;2.03;;;1.93;;
15443;SDS011;7822;48.146;11.576;2023-02-15T08:55:20;2.27;;;2.17;;
15443;SDS011;7822;48.146;11.576;2023-02-15T08:57:47;2.10;;;2.00;;
15443;SDS011;7822;48.146;11.576;2023-02-15T09:00:15;2.20;;;2.00;;
15443;SDS011;7822;48.146;11.576;2023-02-15T09:02:44;2.30;;;2.20;;
15443;SDS011;7822;48.146;11.576;2023-02-15T09:05:11;2.40;;;2.20;;
15443;SDS011;7822;48.146;11.576;2023-02-15T09:07:41;2.30;;;2.20;;
15443;SDS011;7822;48.146;11.576;2023-02-15T09:10:08;1.97;;;1.87;;
15443;SDS011;7822;48.146;11.576;2023-02-15T09:12:36;1.93;;;1.83;;
15443;SDS011;7822;48.146;11.576;2023-02-15T09:15:04;2.17;;;1.97;;
15443;SDS011;7822;48.146;11.576;2023-02-15T09:17:32;2.50;;;2.40;;
15443;SDS011;7822;48.146;11.576;2023-02-15T09:20:00;2.37;;;2.10;;
15443;SDS011;7822;48.146;11.576;2023-02-15T09:22:28;1.90;;;1.80;;
15443;SDS011;7822;48.146;11.576;2023-02-15T09:24:58;1.97;;;1.87;;
15443;SDS011;7822;48.146;11.576;2023-02-15T09:27:26;1.97;;;1.87;;
15443;SDS011;7822;48.146;11.576;2023-02-15T09:29:53;1.80;;;1.70;;
15443;SDS011;7822;48.146;11.576;2023-02-15T09:32:21;1.97;;;1.87;;
15443;SDS011;7822;48.146;11.576;2023-02-15T09:34:49;1.90;;;1.80;;
15443;SDS011;7822;48.146;11.576;2023-02-15T09:37:16;2.00;;;1.90;;
15443;SDS011;7822;48.146;11.576;2023-02-15T09:39:44;2.00;;;1.90;;
15443;SDS011;7822;48.146;11.576;2023-02-15T09:42:34;2.30;;;2.10;;
15443;SDS011;7822;48.146;11.576;2023-02-15T09:45:23;1.97;;;1.87;;
15443;SDS011;7822;48.146;11.576;2023-02-15T09:48:08;2.40;;;2.10;;
15443;SDS011;7822;48.146;11.576;2023-02-15T09:51:04;2.27;;;2.07;;
15443;SDS011;7822;48.146;11.576;2023-02-15T09:53:52;2.17;;;2.00;;
15443;SDS011;7822;48.146;11.576;2023-02-15T09:56:29;1.83;;;1.73;;
15443;SDS011;7822;48.146;11.576;2023-02-15T09:59:07;1.80;;;1.70;;
15443;SDS011;7822;48.146;11.576;2023-02-15T10:01:43;2.30;;;2.10;;
15443;SDS011;7822;48.146;11.576;2023-02-15T10:04:24;2.37;;;2.20;;
15443;SDS011;7822;48.146;11.576;2023-02-15T10:07:12;1.97;;;1.87;;
15443;SDS011;7822;48.146;11.576;2023-02-15T10:09:53;2.43;;;2.23;;
15443;SDS011;7822;48.146;11.576;2023-02-15T10:12:32;2.20;;;2.00;;
15443;SDS011;7822;48.146;11.576;2023-02-15T10:15:18;1.83;;;1.73;;
15443;SDS011;7822;48.146;11.576;2023-02-15T10:17:54;2.10;;;2.00;;
15443;SDS011;7822;48.146;11.576;2023-02-15T10:20:33;2.23;;;2.00;;
15443;SDS011;7822;48.146;11.576;2023-02-15T10:23:17;2.17;;;2.00;;
15443;SDS011;7822;48.146;11.576;2023-02-15T10:26:01;1.70;;;1.60;;
15443;SDS011;7822;48.146;11.576;2023-02-15T10:28:39;2.07;;;1.80;;
15443;SDS011;7822;48.146;11.576;2023-02-15T10:31:15;2.33;;;2.13;;
15443;SDS011;7822;48.146;11.576;2023-02-15T10:33:52;2.13;;;2.03;;
15443;SDS011;7822;48.146;11.576;2023-02-15T10:36:38;2.03;;;1.93;;
15443;SDS011;7822;48.146;11.576;2023-02-15T10:39:21;1.90;;;1.80;;
15443;SDS011;7822;48.146;11.576;2023-02-15T10:41:57;1.77;;;1.67;;
15443;SDS011;7822;48.146;11.576;2023-02-15T10:44:37;1.87;;;1.77;;
15443;SDS011;7822;48.146;11.576;2023-02-15T10:47:22;1.90;;;1.80;;
15443;SDS011;7822;48.146;11.576;2023-02-15T10:50:24;2.20;;;2.00;;
15443;SDS011;7822;48.146;11.576;2023-02-15T10:53:00;1.93;;;1.83;;
15443;SDS011;7822;48.146;11.576;2023-02-15T10:55:44;2.20;;;2.10;;
15443;SDS011;7822;48.146;11.576;2023-02-15T10:58:22;2.00;;;1.90;;
15443;SDS011;7822;48.146;11.576;2023-02-15T11:01:02;2.20;;;2.10;;
15443;SDS011;7822;48.146;11.576;2023-02-15T11:03:46;2.13;;;2.03;;
15443;SDS011;7822;48.146;11.576;2023-02-15T11:06:30;1.90;;;1.80;;
15443;SDS011;7822;48.146;11.576;2023-02-15T11:09:00;1.87;;;1.73;;
15443;SDS011;7822;48.146;11.576;2023-02-15T11:11:31;2.30;;;1.97;;
15443;SDS011;7822;48.146;11.576;2023-02-15T11:14:05;2.13;;;2.00;;
15443;SDS011;7822;48.146;11.576;2023-02-15T11:16:42;2.10;;;1.90;;
15443;SDS011;7822;48.146;11.576;2023-02-15T11:19:18;2.03;;;1.93;;
15443;SDS011;7822;48.146;11.576;2023-02-15T11:21:49;2.13;;;1.93;;
15443;SDS011;7822;48.146;11.576;2023-02-15T11:24:20;2.00;;;1.90;;
15443;SDS011;7822;48.146;11.576;2023-02-15T11:26:49;2.07;;;1.97;;
15443;SDS011;7822;48.146;11.576;2023-02-15T11:29:23;1.80;;;1.70;;
15443;SDS011;7822;48.146;11.576;2023-02-15T11:31:56;2.13;;;2.03;;
15443;SDS011;7822;48.146;11.576;2023-02-15T11:34:29;2.17;;;2.00;;
15443;SDS011;7822;48.146;11.576;2023-02-15T11:37:01;1.90;;;1.80;;
15443;SDS011;7822;48.146;11.576;2023-02-15T11:39:33;1.97;;;1.87;;
15443;SDS011;7822;48.146;11.576;2023-02-15T11:42:04;2.30;;;2.10;;
15443;SDS011;7822;48.146;11.576;2023-02-15T11:44:39;1.83;;;1.73;;
15443;SDS011;7822;48.146;11.576;2023-02-15T11:47:13;2.00;;;1.90;;
15443;SDS011;7822;48.146;11.576;2023-02-15T11:49:43;2.47;;;2.27;;
15443;SDS011;7822;48.146;11.576;2023-02-15T11:52:14;2.20;;;2.03;;
15443;SDS011;7822;48.146;11.576;2023-02-15T11:54:45;2.10;;;2.00;;
15443;SDS011;7822;48.146;11.576;2023-02-15T11:57:17;2.07;;;1.97;;
15443;SDS011;7822;48.146;11.576;2023-02-15T11:59:49;2.37;;;2.27;;
15443;SDS011;7822;48.146;11.576;2023-02-15T12:02:20;2.03;;;1.93;;
15443;SDS011;7822;48.146;11.576;2023-02-15T12:04:54;2.00;;;1.90;;
15443;SDS011;7822;48.146;11.576;2023-02-15T12:07:26;2.03;;;1.93;;
15443;SDS011;7822;48.146;11.576;2023-02-15T12:10:00;2.00;;;1.90;;
15443;SDS011;7822;48.146;11.576;2023-02-15T12:12:33;2.03;;;1.93;;
15443;SDS011;7822;48.146;11.576;2023-02-15T12:15:02;2.47;;;2.00;;
15443;SDS011;7822;48.146;11.576;2023-02-15T12:17:32;2.40;;;2.20;;
15443;SDS011;7822;48.146;11.576;2023-02-15T12:20:03;1.90;;;1.80;;
15443;SDS011;7822;48.146;11.576;2023-02-15T12:22:35;2.20;;;2.10;;
15443;SDS011;7822;48.146;11.576;2023-02-15T12:25:11;2.00;;;1.90;;
15443;SDS011;7822;48.146;11.576;2023-02-15T12:27:49;1.90;;;1.80;;
15443;SDS011;7822;48.146;11.576;2023-02-15T12:30:18;2.40;;;2.20;;
15443;SDS011;7822;48.146;11.576;2023-02-15T12:32:51;2.10;;;2.00;;
15443;SDS011;7822;48.146;11.576;2023-02-15T12:35:25;2.03;;;1.93;;
15443;SDS011;7822;48.146;11.576;2023-02-15T12:37:56;2.13;;;2.03;;
15443;SDS011;7822;48.146;11.576;2023-02-15T12:40:28;2.70;;;2.50;;
15443;SDS011;7822;48.146;11.576;2023-02-15T12:42:57;2.00;;;1.90;;
15443;SDS011;7822;48.146;11.576;2023-02-15T12:45:26;2.27;;;2.07;;
15443;SDS011;7822;48.146;11.576;2023-02-15T12:48:13;2.37;;;2.20;;
15443;SDS011;7822;48.146;11.576;2023-02-15T12:50:44;2.17;;;2.03;;
15443;SDS011;7822;48.146;11.576;2023-02-15T12:53:21;1.90;;;1.80;;
15443;SDS011;7822;48.146;11.576;2023-02-15T12:55:51;2.30;;;2.20;;
15443;SDS011;7822;48.146;11.576;2023-02-15T12:58:21;1.90;;;1.80;;
15443;SDS011;7822;48.146;11.576;2023-02-15T13:01:08;1.93;;;1.83;;
15443;SDS011;7822;48.146;11.576;2023-02-15T13:03:40;2.07;;;1.97;;
15443;SDS011;7822;48.146;11.576;2023-02-15T13:06:30;1.90;;;1.80;;
15443;SDS011;7822;48.146;11.576;2023-02-15T13:09:05;2.40;;;2.20;;
15443;SDS011;7822;48.146;11.576;2023-02-15T13:11:39;2.30;;;2.10;;
15443;SDS011;7822;48.146;11.576;2023-02-15T13:14:15;1.80;;;1.70;;
15443;SDS011;7822;48.146;11.576;2023-02-15T13:16:46;2.00;;;1.90;;
15443;SDS011;7822;48.146;11.576;2023-02-15T13:19:16;2.20;;;2.00;;
15443;SDS011;7822;48.146;11.576;2023-02-15T13:21:48;1.87;;;1.77;;
15443;SDS011;7822;48.146;11.576;2023-02-15T13:24:19;2.40;;;2.30;;
15443;SDS011;7822;48.146;11.576;2023-02-15T13:26:50;1.73;;;1.63;;
15443;SDS011;7822;48.146;11.576;2023-02-15T13:29:34;2.13;;;2.03;;
15443;SDS011;7822;48.146;11.576;2023-02-15T13:32:07;2.20;;;2.10;;
15443;SDS011;7822;48.146;11.576;2023-02-15T13:34:42;2.30;;;2.13;;
15443;SDS011;7822;48.146;11.576;2023-02-15T13:37:12;2.03;;;1.93;;
15443;SDS011;7822;48.146;11.576;2023-02-15T13:39:44;1.80;;;1.70;;
15443;SDS011;7822;48.146;11.576;2023-02-15T13:42:18;2.20;;;2.10;;
15443;SDS011;7822;48.146;11.576;2023-02-15T13:45:02;2.43;;;2.23;;
15443;SDS011;7822;48.146;11.576;2023-02-15T13:47:48;1.90;;;1.80;;
15443;SDS011;7822;48.146;11.576;2023-02-15T13:50:25;2.07;;;1.97;;
15443;SDS011;7822;48.146;11.576;2023-02-15T13:53:12;2.07;;;1.97;;
15443;SDS011;7822;48.146;11.576;2023-02-15T13:55:53;2.00;;;1.90;;
15443;SDS011;7822;48.146;11.576;2023-02-15T14:01:36;2.13;;;2.03;;
15443;SDS011;7822;48.146;11.576;2023-02-15T14:04:14;2.27;;;2.17;;
15443;SDS011;7822;48.146;11.576;2023-02-15T14:09:56;2.00;;;1.80;;
15443;SDS011;7822;48.146;11.576;2023-02-15T14:12:37;2.10;;;2.00;;
15443;SDS011;7822;48.146;11.576;2023-02-15T14:15:21;2.07;;;1.97;;
15443;SDS011;7822;48.146;11.576;2023-02-15T14:17:59;2.20;;;2.10;;
15443;SDS011;7822;48.146;11.576;2023-02-15T14:20:39;2.13;;;2.03;;
15443;SDS011;7822;48.146;11.576;2023-02-15T14:23:19;2.07;;;1.90;;
15443;SDS011;7822;48.146;11.576;2023-02-15T14:26:00;2.13;;;2.03;;
15443;SDS011;7822;48.146;11.576;2023-02-15T14:28:37;2.13;;;1.93;;
15443;SDS011;7822;48.146;11.576;2023-02-15T14:31:11;2.17;;;2.00;;
15443;SDS011;7822;48.146;11.576;2023-02-15T14:33:43;2.50;;;2.27;;
15443;SDS011;7822;48.146;11.576;2023-02-15T14:36:19;5.30;;;2.80;;
15443;SDS011;7822;48.146;11.576;2023-02-15T14:38:53;3.40;;;2.47;;
15443;SDS011;7822;48.146;11.576;2023-02-15T14:41:35;5.10;;;2.33;;
15443;SDS011;7822;48.146;11.576;2023-02-15T14:44:07;4.17;;;2.87;;
15443;SDS011;7822;48.146;11.576;2023-02-15T14:46:41;9.40;;;2.80;;
15443;SDS011;7822;48.146;11.576;2023-02-15T14:49:13;3.53;;;2.60;;
15443;SDS011;7822;48.146;11.576;2023-02-15T14:51:54;4.73;;;2.83;;
15443;SDS011;7822;48.146;11.576;2023-02-15T14:57:26;3.67;;;2.87;;
15443;SDS011;7822;48.146;11.576;2023-02-15T15:00:00;5.27;;;2.80;;
15443;SDS011;7822;48.146;11.576;2023-02-15T15:02:40;3.33;;;2.73;;
15443;SDS011;7822;48.146;11.576;2023-02-15T15:05:17;3.50;;;3.00;;
15443;SDS011;7822;48.146;11.576;2023-02-15T15:07:47;2.67;;;2.20;;
15443;SDS011;7822;48.146;11.576;2023-02-15T15:10:33;4.80;;;2.67;;
15443;SDS011;7822;48.146;11.576;2023-02-15T15:16:30;3.77;;;2.30;;
15443;SDS011;7822;48.146;11.576;2023-02-15T15:19:13;3.47;;;2.63;;
15443;SDS011;7822;48.146;11.576;2023-02-15T15:22:28;3.13;;;2.30;;
15443;SDS011;7822;48.146;11.576;2023-02-15T15:24:57;4.00;;;2.80;;
15443;SDS011;7822;48.146;11.576;2023-02-15T15:36:38;2.43;;;2.23;;
15443;SDS011;7822;48.146;11.576;2023-02-15T15:39:27;3.07;;;2.50;;
15443;SDS011;7822;48.146;11.576;2023-02-15T15:42:18;2.30;;;2.13;;
15443;SDS011;7822;48.146;11.576;2023-02-15T15:45:08;3.00;;;2.47;;
15443;SDS011;7822;48.146;11.576;2023-02-15T15:47:58;3.77;;;2.47;;